createdAt,value
2023-05-02T00:00:25.693Z,19.08
2023-05-02T00:03:28.030Z,20.02
2023-05-02T00:06:31.388Z,18.88
2023-05-02T00:09:33.715Z,18.52
2023-05-02T00:12:37.346Z,18.50
2023-05-02T00:15:39.548Z,19.63
2023-05-02T00:18:41.801Z,20.05
2023-05-02T00:21:44.021Z,18.90
2023-05-02T00:24:46.233Z,19.42
2023-05-02T00:27:51.175Z,19.45
2023-05-02T00:30:53.800Z,19.80
2023-05-02T00:33:56.442Z,19.92
2023-05-02T00:36:58.826Z,20.35
2023-05-02T00:40:01.481Z,19.60
2023-05-02T00:43:05.351Z,20.20
2023-05-02T00:46:08.452Z,19.08
2023-05-02T00:49:10.821Z,20.30
2023-05-02T00:52:13.253Z,21.33
2023-05-02T00:55:15.717Z,21.23
2023-05-02T00:58:21.279Z,20.60
2023-05-02T01:01:33.266Z,21.23
2023-05-02T01:08:04.969Z,19.23
2023-05-02T01:11:15.042Z,19.83
2023-05-02T01:14:18.831Z,20.23
2023-05-02T01:17:23.336Z,22.00
2023-05-02T01:20:27.978Z,21.38
2023-05-02T01:23:39.835Z,22.92
2023-05-02T01:26:48.209Z,22.30
2023-05-02T01:29:53.049Z,22.00
2023-05-02T01:32:57.976Z,23.67
2023-05-02T01:36:00.959Z,23.40
2023-05-02T01:39:04.240Z,24.27
2023-05-02T01:42:06.644Z,23.83
2023-05-02T01:45:12.111Z,25.40
2023-05-02T01:48:15.592Z,23.88
2023-05-02T01:51:19.274Z,27.73
2023-05-02T01:54:23.422Z,25.73
2023-05-02T01:57:26.433Z,25.58
2023-05-02T02:00:31.596Z,26.27
2023-05-02T02:03:33.963Z,27.45
2023-05-02T02:06:36.331Z,26.30
2023-05-02T02:09:38.576Z,26.33
2023-05-02T02:12:42.738Z,27.27
2023-05-02T02:15:48.422Z,26.55
2023-05-02T02:18:55.274Z,26.65
2023-05-02T02:21:58.557Z,25.58
2023-05-02T02:25:01.409Z,26.13
2023-05-02T02:28:07.058Z,25.27
2023-05-02T02:31:10.948Z,24.27
2023-05-02T02:34:13.229Z,23.98
2023-05-02T02:37:18.661Z,25.73
2023-05-02T02:40:24.033Z,25.13
2023-05-02T02:43:32.596Z,24.95
2023-05-02T02:46:49.003Z,23.17
2023-05-02T02:49:54.951Z,19.83
2023-05-02T02:53:00.719Z,19.30
2023-05-02T02:56:06.298Z,18.98
2023-05-02T02:59:14.952Z,21.02
2023-05-02T03:02:19.953Z,20.13
2023-05-02T03:05:22.792Z,22.02
2023-05-02T03:08:25.973Z,20.08
2023-05-02T03:11:29.602Z,20.25
2023-05-02T03:14:33.128Z,21.42
2023-05-02T03:17:36.730Z,21.35
2023-05-02T03:20:39.109Z,21.65
2023-05-02T03:23:41.398Z,20.52
2023-05-02T03:26:44.365Z,19.98
2023-05-02T03:29:48.997Z,19.17
2023-05-02T03:32:54.512Z,20.65
2023-05-02T03:35:57.585Z,19.38
2023-05-02T03:39:00.316Z,18.38
2023-05-02T03:42:05.624Z,18.33
2023-05-02T03:45:08.927Z,18.95
2023-05-02T03:48:12.591Z,17.67
2023-05-02T03:51:15.239Z,18.88
2023-05-02T03:54:20.369Z,17.95
2023-05-02T03:57:23.214Z,18.30
2023-05-02T04:00:25.610Z,17.08
2023-05-02T04:03:36.521Z,18.17
2023-05-02T04:06:39.662Z,16.08
2023-05-02T04:09:44.011Z,18.63
2023-05-02T04:12:47.682Z,16.98
2023-05-02T04:15:50.783Z,18.67
2023-05-02T04:18:58.199Z,17.88
2023-05-02T04:22:02.182Z,19.13
2023-05-02T04:25:08.953Z,19.00
2023-05-02T04:28:14.120Z,16.98
2023-05-02T04:31:16.551Z,18.65
2023-05-02T04:34:21.909Z,18.58
2023-05-02T04:37:25.517Z,20.65
2023-05-02T04:40:27.942Z,18.15
2023-05-02T04:43:36.322Z,19.48
2023-05-02T04:46:39.498Z,18.10
2023-05-02T04:49:43.347Z,18.23
2023-05-02T04:52:45.655Z,18.45
2023-05-02T04:55:47.997Z,20.70
2023-05-02T04:58:51.413Z,17.70
2023-05-02T05:01:53.589Z,16.20
2023-05-02T05:04:57.247Z,17.65
2023-05-02T05:07:59.720Z,17.02
2023-05-02T05:11:06.710Z,16.30
2023-05-02T05:14:09.593Z,15.02
2023-05-02T05:17:14.600Z,15.38
2023-05-02T05:20:19.947Z,14.88
2023-05-02T05:23:25.019Z,15.65
2023-05-02T05:26:27.489Z,15.50
2023-05-02T05:29:31.665Z,16.30
2023-05-02T05:32:35.815Z,14.02
2023-05-02T05:35:39.623Z,15.45
2023-05-02T05:38:42.049Z,15.35
2023-05-02T05:41:48.042Z,14.60
2023-05-02T05:44:53.784Z,15.70
2023-05-02T05:47:56.908Z,14.88
2023-05-02T05:51:05.809Z,13.23
2023-05-02T05:54:09.119Z,15.07
2023-05-02T05:57:12.338Z,13.82
2023-05-02T06:00:16.852Z,13.93
2023-05-02T06:03:22.283Z,12.88
2023-05-02T06:06:27.444Z,11.98
2023-05-02T06:09:29.776Z,12.23
2023-05-02T06:12:32.212Z,13.15
2023-05-02T06:15:37.820Z,12.93
2023-05-02T06:18:41.604Z,11.75
2023-05-02T06:21:45.416Z,12.75
2023-05-02T06:24:47.907Z,12.85
2023-05-02T06:27:50.741Z,13.43
2023-05-02T06:30:57.833Z,13.35
2023-05-02T06:34:00.268Z,12.27
2023-05-02T06:37:04.043Z,13.05
2023-05-02T06:40:07.796Z,12.75
2023-05-02T06:43:10.409Z,11.85
2023-05-02T06:46:12.793Z,12.65
2023-05-02T06:49:15.319Z,14.02
2023-05-02T06:52:19.475Z,12.80
2023-05-02T06:55:21.961Z,12.95
2023-05-02T06:58:24.497Z,13.15
2023-05-02T07:01:26.831Z,13.55
2023-05-02T07:04:29.235Z,12.43
2023-05-02T07:07:32.838Z,12.07
2023-05-02T07:10:35.188Z,10.95
2023-05-02T07:13:37.450Z,11.52
2023-05-02T07:16:39.896Z,11.38
2023-05-02T07:19:43.886Z,10.15
2023-05-02T07:22:49.025Z,9.65
2023-05-02T07:25:51.392Z,9.38
2023-05-02T07:28:53.875Z,8.52
2023-05-02T07:31:56.771Z,8.43
2023-05-02T07:34:59.022Z,8.18
2023-05-02T07:38:02.773Z,7.65
2023-05-02T07:41:05.186Z,8.40
2023-05-02T07:44:07.492Z,7.25
2023-05-02T07:47:09.923Z,8.60
2023-05-02T07:50:12.225Z,9.00
2023-05-02T07:53:17.493Z,11.13
2023-05-02T07:56:19.757Z,10.70
2023-05-02T07:59:21.924Z,11.93
2023-05-02T08:02:25.057Z,15.02
2023-05-02T08:05:27.666Z,12.60
2023-05-02T08:08:32.436Z,9.90
2023-05-02T08:11:34.650Z,10.30
2023-05-02T08:14:37.026Z,11.10
2023-05-02T08:17:39.594Z,10.45
2023-05-02T08:20:43.414Z,9.07
2023-05-02T08:23:48.015Z,9.45
2023-05-02T08:26:50.776Z,6.10
2023-05-02T08:29:53.162Z,6.30
2023-05-02T08:32:55.509Z,5.35
2023-05-02T08:35:57.767Z,6.05
2023-05-02T08:39:03.669Z,4.18
2023-05-02T08:42:07.210Z,3.00
2023-05-02T08:45:12.287Z,1.65
2023-05-02T08:48:17.320Z,1.20
2023-05-02T08:54:29.152Z,2.20
2023-05-02T08:57:31.585Z,2.90
2023-05-02T09:00:37.389Z,1.92
2023-05-02T09:03:39.885Z,2.03
2023-05-02T09:06:42.376Z,2.08
2023-05-02T09:09:46.333Z,1.83
2023-05-02T09:12:48.583Z,2.03
2023-05-02T09:15:57.596Z,6.32
2023-05-02T09:18:59.925Z,6.43
2023-05-02T09:22:02.989Z,5.93
2023-05-02T09:25:07.720Z,6.13
2023-05-02T09:28:10.147Z,6.55
2023-05-02T09:31:16.798Z,6.28
2023-05-02T09:34:21.901Z,7.28
2023-05-02T09:37:36.534Z,7.72
2023-05-02T09:40:53.806Z,7.90
2023-05-02T09:43:57.426Z,7.22
2023-05-02T09:47:02.147Z,8.52
2023-05-02T09:50:06.405Z,7.35
2023-05-02T09:53:09.913Z,7.97
2023-05-02T09:56:13.657Z,7.22
2023-05-02T09:59:16.604Z,8.30
2023-05-02T10:02:19.521Z,8.02
2023-05-02T10:05:22.012Z,7.40
2023-05-02T10:08:27.386Z,5.80
2023-05-02T10:11:31.865Z,5.22
2023-05-02T10:14:39.832Z,5.00
2023-05-02T10:17:47.567Z,6.30
2023-05-02T10:20:57.028Z,6.15
2023-05-02T10:24:02.103Z,6.50
2023-05-02T10:27:05.861Z,6.82
2023-05-02T10:30:09.264Z,7.30
2023-05-02T10:33:13.711Z,6.57
2023-05-02T10:36:16.081Z,5.90
2023-05-02T10:39:19.660Z,4.80
2023-05-02T10:42:23.733Z,4.63
2023-05-02T10:45:33.057Z,3.45
2023-05-02T10:48:35.623Z,3.15
2023-05-02T10:51:39.275Z,3.20
2023-05-02T10:54:41.805Z,3.63
2023-05-02T10:58:21.461Z,3.33
2023-05-02T11:01:37.694Z,4.90
2023-05-02T11:04:59.949Z,6.60
2023-05-02T11:08:31.082Z,6.30
2023-05-02T11:11:43.012Z,5.88
2023-05-02T11:14:47.835Z,5.63
2023-05-02T11:18:01.713Z,5.47
2023-05-02T11:21:25.265Z,5.35
2023-05-02T11:24:40.465Z,5.28
2023-05-02T11:27:44.528Z,5.30
2023-05-02T11:30:50.937Z,5.78
2023-05-02T11:33:57.615Z,4.47
2023-05-02T11:37:00.010Z,4.38
2023-05-02T11:40:12.221Z,3.60
2023-05-02T11:43:16.147Z,3.63
2023-05-02T11:46:20.306Z,3.50
2023-05-02T11:49:24.102Z,3.88
2023-05-02T11:52:26.789Z,5.22
2023-05-02T11:55:29.791Z,5.40
2023-05-02T11:58:33.560Z,5.80
2023-05-02T12:01:36.574Z,5.18
2023-05-02T12:04:46.982Z,4.95
2023-05-02T12:07:49.401Z,3.85
2023-05-02T12:10:53.202Z,3.53
2023-05-02T12:13:55.796Z,3.33
2023-05-02T12:16:58.858Z,2.88
2023-05-02T12:20:03.142Z,2.80
2023-05-02T12:23:07.053Z,2.25
2023-05-02T12:26:20.098Z,2.80
2023-05-02T12:29:22.504Z,3.38
2023-05-02T12:32:32.601Z,4.25
2023-05-02T12:35:36.633Z,3.70
2023-05-02T12:38:39.440Z,3.97
2023-05-02T12:41:45.885Z,4.10
2023-05-02T12:44:49.293Z,3.55
2023-05-02T12:47:51.812Z,3.00
2023-05-02T12:50:55.623Z,2.75
2023-05-02T12:53:58.162Z,2.47
2023-05-02T12:57:03.029Z,2.50
2023-05-02T13:00:07.040Z,2.35
2023-05-02T13:03:10.523Z,2.03
2023-05-02T13:06:14.258Z,2.30
2023-05-02T13:09:16.989Z,1.92
2023-05-02T13:12:19.307Z,2.40
2023-05-02T13:15:21.673Z,2.13
2023-05-02T13:18:25.082Z,2.20
2023-05-02T13:21:28.747Z,2.35
2023-05-02T13:24:31.149Z,2.28
2023-05-02T13:27:34.244Z,2.25
2023-05-02T13:30:36.613Z,2.80
2023-05-02T13:33:38.927Z,3.00
2023-05-02T13:36:46.281Z,1.80
2023-05-02T13:39:48.788Z,2.17
2023-05-02T13:42:51.187Z,2.08
2023-05-02T13:45:53.422Z,2.70
2023-05-02T13:48:55.748Z,2.35
2023-05-02T13:51:59.456Z,2.90
2023-05-02T13:55:04.870Z,2.65
2023-05-02T13:58:07.345Z,2.67
2023-05-02T14:01:09.668Z,2.30
2023-05-02T14:04:12.311Z,2.30
2023-05-02T14:07:16.033Z,3.70
2023-05-02T14:10:18.277Z,1.70
2023-05-02T14:13:20.526Z,2.60
2023-05-02T14:16:22.919Z,2.45
2023-05-02T14:19:25.178Z,2.13
2023-05-02T14:22:28.920Z,2.10
2023-05-02T14:25:31.189Z,2.10
2023-05-02T14:28:33.502Z,2.17
2023-05-02T14:31:36.057Z,2.38
2023-05-02T14:34:38.394Z,2.60
2023-05-02T14:37:44.959Z,2.78
2023-05-02T14:40:47.194Z,2.45
2023-05-02T14:43:51.282Z,2.25
2023-05-02T14:46:54.759Z,1.70
2023-05-02T14:49:58.505Z,2.20
2023-05-02T14:53:02.287Z,1.90
2023-05-02T14:56:12.192Z,2.53
2023-05-02T14:59:14.456Z,2.17
2023-05-02T15:02:16.862Z,2.03
2023-05-02T15:05:19.424Z,2.22
2023-05-02T15:08:23.127Z,2.00
2023-05-02T15:11:25.613Z,3.40
2023-05-02T15:14:28.118Z,3.55
2023-05-02T15:17:30.368Z,3.22
2023-05-02T15:20:32.684Z,3.20
2023-05-02T15:23:36.707Z,2.78
2023-05-02T15:26:40.428Z,1.85
2023-05-02T15:29:42.768Z,2.28
2023-05-02T15:32:45.078Z,2.15
2023-05-02T15:35:55.036Z,2.38
2023-05-02T15:38:58.794Z,2.00
2023-05-02T15:42:04.691Z,1.90
2023-05-02T15:45:07.829Z,1.80
2023-05-02T15:48:10.119Z,1.70
2023-05-02T15:51:13.669Z,2.42
2023-05-02T15:54:17.752Z,2.38
2023-05-02T15:57:21.122Z,2.40
2023-05-02T16:00:23.475Z,2.45
2023-05-02T16:03:25.879Z,2.40
2023-05-02T16:06:29.222Z,2.30
2023-05-02T16:09:32.866Z,2.70
2023-05-02T16:12:36.185Z,3.80
2023-05-02T16:15:38.614Z,2.80
2023-05-02T16:18:40.822Z,2.78
2023-05-02T16:21:45.835Z,2.15
2023-05-02T16:24:49.424Z,2.20
2023-05-02T16:27:51.789Z,2.40
2023-05-02T16:30:54.219Z,2.45
2023-05-02T16:33:58.048Z,2.65
2023-05-02T16:37:03.180Z,2.50
2023-05-02T16:40:09.052Z,2.65
2023-05-02T16:43:11.538Z,3.30
2023-05-02T16:46:16.022Z,4.20
2023-05-02T16:49:18.439Z,2.67
2023-05-02T16:52:21.302Z,3.30
2023-05-02T16:55:24.929Z,3.33
2023-05-02T16:58:28.701Z,3.17
2023-05-02T17:01:31.309Z,3.38
2023-05-02T17:04:33.663Z,3.33
2023-05-02T17:07:37.085Z,3.05
2023-05-02T17:10:40.727Z,3.17
2023-05-02T17:13:43.819Z,2.80
2023-05-02T17:16:46.205Z,2.55
2023-05-02T17:19:48.580Z,2.55
2023-05-02T17:22:51.226Z,2.53
2023-05-02T17:25:55.036Z,2.60
2023-05-02T17:28:57.331Z,2.22
2023-05-02T17:32:02.514Z,3.13
2023-05-02T17:35:06.527Z,3.25
2023-05-02T17:38:08.833Z,3.00
2023-05-02T17:41:12.944Z,3.03
2023-05-02T17:44:16.380Z,3.03
2023-05-02T17:47:19.769Z,2.53
2023-05-02T17:50:22.474Z,2.28
2023-05-02T17:53:26.178Z,2.40
2023-05-02T17:56:30.127Z,2.38
2023-05-02T17:59:32.412Z,2.58
2023-05-02T18:02:36.840Z,2.40
2023-05-02T18:05:39.695Z,2.70
2023-05-02T18:08:41.973Z,2.00
2023-05-02T18:11:45.643Z,1.88
2023-05-02T18:14:48.962Z,2.50
2023-05-02T18:17:51.511Z,2.38
2023-05-02T18:20:53.851Z,1.70
2023-05-02T18:23:57.747Z,2.03
2023-05-02T18:27:01.668Z,2.78
2023-05-02T18:30:04.787Z,2.90
2023-05-02T18:33:08.098Z,2.15
2023-05-02T18:36:11.213Z,2.80
2023-05-02T18:39:14.217Z,2.65
2023-05-02T18:42:17.802Z,2.10
2023-05-02T18:45:21.108Z,2.97
2023-05-02T18:48:23.303Z,3.20
2023-05-02T18:51:25.700Z,3.42
2023-05-02T18:54:28.689Z,3.42
2023-05-02T18:57:33.802Z,2.50
2023-05-02T19:00:37.376Z,2.80
2023-05-02T19:03:40.209Z,2.47
2023-05-02T19:06:43.081Z,2.60
2023-05-02T19:09:45.711Z,2.45
2023-05-02T19:12:49.611Z,2.50
2023-05-02T19:15:52.309Z,2.30
2023-05-02T19:18:55.947Z,2.58
2023-05-02T19:21:59.895Z,3.75
2023-05-02T19:25:02.691Z,4.05
2023-05-02T19:28:08.591Z,2.70
2023-05-02T19:31:12.420Z,2.33
2023-05-02T19:34:15.134Z,2.55
2023-05-02T19:37:17.710Z,2.45
2023-05-02T19:40:21.046Z,2.38
2023-05-02T19:43:25.600Z,2.05
2023-05-02T19:46:30.865Z,2.65
2023-05-02T19:49:33.858Z,2.72
2023-05-02T19:52:39.034Z,3.13
2023-05-02T19:55:41.568Z,2.95
2023-05-02T19:58:45.367Z,3.70
2023-05-02T20:01:47.889Z,4.15
2023-05-02T20:04:50.531Z,3.63
2023-05-02T20:07:53.071Z,3.00
2023-05-02T20:10:55.950Z,3.10
2023-05-02T20:14:00.822Z,3.35
2023-05-02T20:17:04.786Z,3.55
2023-05-02T20:20:10.654Z,3.63
2023-05-02T20:23:13.412Z,3.25
2023-05-02T20:26:17.889Z,3.50
2023-05-02T20:29:21.834Z,3.67
2023-05-02T20:32:25.403Z,3.75
2023-05-02T20:35:29.664Z,3.40
2023-05-02T20:38:32.141Z,4.03
2023-05-02T20:41:36.302Z,3.63
2023-05-02T20:44:40.780Z,3.72
2023-05-02T20:47:43.314Z,4.10
2023-05-02T20:50:53.504Z,3.30
2023-05-02T20:53:56.746Z,3.70
2023-05-02T20:56:59.342Z,4.63
2023-05-02T21:00:04.634Z,4.70
2023-05-02T21:03:07.593Z,5.13
2023-05-02T21:06:10.315Z,3.65
2023-05-02T21:09:13.120Z,4.82
2023-05-02T21:12:16.032Z,4.35
2023-05-02T21:15:20.004Z,3.28
2023-05-02T21:18:22.750Z,4.07
2023-05-02T21:21:25.368Z,3.80
2023-05-02T21:24:28.371Z,4.10
2023-05-02T21:27:31.192Z,3.65
2023-05-02T21:30:36.864Z,4.97
2023-05-02T21:33:39.652Z,3.08
2023-05-02T21:36:43.345Z,4.05
2023-05-02T21:39:46.064Z,3.63
2023-05-02T21:42:48.602Z,3.72
2023-05-02T21:45:52.458Z,5.38
2023-05-02T21:48:54.842Z,3.25
2023-05-02T21:51:58.934Z,3.30
2023-05-02T21:55:01.412Z,4.22
2023-05-02T21:58:04.065Z,4.15
2023-05-02T22:01:08.045Z,3.40
2023-05-02T22:04:10.969Z,4.25
2023-05-02T22:07:13.486Z,4.28
2023-05-02T22:10:16.220Z,4.00
2023-05-02T22:13:19.433Z,3.53
2023-05-02T22:16:23.327Z,8.60
2023-05-02T22:19:25.898Z,4.05
2023-05-02T22:22:28.371Z,3.67
2023-05-02T22:25:31.002Z,3.80
2023-05-02T22:28:33.397Z,3.35
2023-05-02T22:31:37.131Z,3.92
2023-05-02T22:34:39.602Z,3.72
2023-05-02T22:37:42.072Z,3.88
2023-05-02T22:40:44.545Z,3.20
2023-05-02T22:43:48.412Z,3.45
2023-05-02T22:46:52.949Z,3.22
2023-05-02T22:49:59.559Z,3.35
2023-05-02T22:53:04.196Z,3.45
2023-05-02T22:56:07.293Z,3.10
2023-05-02T22:59:10.168Z,3.38
2023-05-02T23:02:13.979Z,3.70
2023-05-02T23:05:16.628Z,4.13
2023-05-02T23:08:19.098Z,3.03
2023-05-02T23:11:21.509Z,3.05
2023-05-02T23:14:23.975Z,3.22
2023-05-02T23:17:27.898Z,3.00
2023-05-02T23:20:30.385Z,3.08
2023-05-02T23:24:02.000Z,3.50
2023-05-02T23:27:22.639Z,4.10
2023-05-02T23:30:24.900Z,3.22
2023-05-02T23:33:29.631Z,3.22
2023-05-02T23:36:32.640Z,2.75
2023-05-02T23:39:34.882Z,3.58
2023-05-02T23:42:40.135Z,3.42
2023-05-02T23:45:42.750Z,3.22
2023-05-02T23:48:46.255Z,3.40
2023-05-02T23:51:48.481Z,3.42
2023-05-02T23:54:52.267Z,3.78
2023-05-02T23:57:54.504Z,4.13
